Time;durP1;ratioP1;P1;durP2;ratioP2;P2;SDS_P1;SDS_P2;PMS_P1;PMS_P2;Temp;Humidity;BMP_temperature;BMP_pressure;BME280_temperature;BME280_humidity;BME280_pressure;Samples;Min_cycle;Max_cycle;Signal;HPM_P1;HPM_P2
2023/09/28 00:05:27;;;;;;;15.48;10.88;;;14.50;99.90;;;;;;10129281;29;20299;-88
2023/09/28 00:10:30;;;;;;;14.05;12.35;;;14.70;99.90;;;;;;10129301;29;20287;-88
2023/09/28 00:15:33;;;;;;;15.80;11.63;;;14.60;99.90;;;;;;10111626;29;20255;-88
2023/09/28 00:20:35;;;;;;;18.45;12.73;;;14.30;99.90;;;;;;10128743;29;20248;-87
2023/09/28 00:25:38;;;;;;;14.02;10.65;;;14.10;99.90;;;;;;10129005;29;20292;-89
2023/09/28 00:30:42;;;;;;;17.10;12.23;;;14.40;99.90;;;;;;10111887;29;20252;-88
2023/09/28 00:35:45;;;;;;;17.13;12.30;;;14.40;99.90;;;;;;10128992;29;20738;-88
2023/09/28 00:40:47;;;;;;;15.60;11.10;;;14.80;99.90;;;;;;10128690;29;20304;-87
2023/09/28 00:45:50;;;;;;;15.88;11.18;;;14.50;99.90;;;;;;10128992;29;20248;-88
2023/09/28 00:50:54;;;;;;;17.45;12.50;;;14.60;99.90;;;;;;10130470;29;20248;-87
2023/09/28 00:55:56;;;;;;;15.98;11.90;;;14.50;99.90;;;;;;10136975;29;20251;-88
2023/09/28 01:01:00;;;;;;;21.02;13.43;;;14.40;99.90;;;;;;10136673;29;20252;-87
2023/09/28 01:06:07;;;;;;;18.10;12.88;;;14.30;99.90;;;;;;10119533;29;20660;-88
2023/09/28 01:11:10;;;;;;;14.80;12.00;;;14.10;99.90;;;;;;10103603;29;20299;-87
2023/09/28 01:16:13;;;;;;;18.33;12.23;;;13.90;99.90;;;;;;10135991;29;20292;-88
2023/09/28 01:21:16;;;;;;;14.95;11.90;;;14.00;99.90;;;;;;10136219;29;20294;-88
2023/09/28 01:26:19;;;;;;;19.67;13.50;;;14.10;99.90;;;;;;10118483;29;20311;-88
2023/09/28 01:31:23;;;;;;;19.48;13.40;;;;;;;;;;10136265;29;20239;-87
2023/09/28 01:36:25;;;;;;;24.27;14.15;;;13.70;99.90;;;;;;10119402;29;20715;-88
2023/09/28 01:41:28;;;;;;;17.33;12.77;;;13.70;99.90;;;;;;10136054;29;20255;-88
2023/09/28 01:46:31;;;;;;;19.95;12.82;;;13.80;99.90;;;;;;10117914;29;20247;-88
2023/09/28 01:51:34;;;;;;;16.60;13.13;;;13.70;99.90;;;;;;10118040;29;20617;-87
2023/09/28 01:56:36;;;;;;;16.30;14.07;;;14.00;99.90;;;;;;10134360;29;20255;-88
2023/09/28 02:01:40;;;;;;;16.27;13.68;;;14.00;99.90;;;;;;10116345;29;20252;-88
2023/09/28 02:06:43;;;;;;;19.00;12.93;;;14.10;99.90;;;;;;10134416;29;20307;-88
2023/09/28 02:11:45;;;;;;;17.10;12.35;;;14.10;99.90;;;;;;10117938;29;20687;-87
2023/09/28 02:16:48;;;;;;;24.08;15.30;;;14.20;99.90;;;;;;10117292;29;20272;-88
2023/09/28 02:21:53;;;;;;;16.52;13.57;;;14.20;99.90;;;;;;10134713;29;20874;-88
2023/09/28 02:26:56;;;;;;;13.50;11.40;;;14.30;99.90;;;;;;10117930;29;20235;-88
2023/09/28 02:31:59;;;;;;;19.42;13.60;;;14.40;99.90;;;;;;10117309;29;20276;-88
2023/09/28 02:37:03;;;;;;;17.77;15.73;;;14.50;99.90;;;;;;10134292;29;20327;-88
2023/09/28 02:42:07;;;;;;;22.70;17.38;;;14.60;99.90;;;;;;10117664;29;20268;-88
2023/09/28 02:47:10;;;;;;;18.65;12.45;;;14.40;99.90;;;;;;10117863;29;20212;-88
2023/09/28 02:52:13;;;;;;;11.85;8.90;;;14.60;99.90;;;;;;10116567;29;20208;-88
2023/09/28 02:57:16;;;;;;;12.48;10.18;;;14.80;99.90;;;;;;10133568;29;20739;-88
2023/09/28 03:02:19;;;;;;;19.80;10.43;;;15.00;99.90;;;;;;10134203;29;20256;-88
2023/09/28 03:07:22;;;;;;;12.35;9.77;;;15.10;99.90;;;;;;10133024;29;20668;-88
2023/09/28 03:12:25;;;;;;;14.55;12.20;;;15.30;99.90;;;;;;10117334;29;20276;-88
2023/09/28 03:17:28;;;;;;;10.25;9.23;;;15.30;99.90;;;;;;10118825;29;20303;-89
2023/09/28 03:22:31;;;;;;;13.52;10.02;;;15.40;99.90;;;;;;10123410;29;20213;-91
2023/09/28 03:27:35;;;;;;;13.25;9.55;;;15.40;99.90;;;;;;10123314;29;20616;-87
2023/09/28 03:32:38;;;;;;;18.02;14.60;;;15.30;99.90;;;;;;10089535;29;20229;-88
2023/09/28 03:37:42;;;;;;;16.40;12.20;;;15.20;99.90;;;;;;10093987;29;20256;-88
2023/09/28 03:42:48;;;;;;;23.55;16.58;;;15.20;99.90;;;;;;10102036;29;20680;-88
2023/09/28 03:47:52;;;;;;;20.48;16.60;;;14.90;99.90;;;;;;10131126;29;21034;-88
2023/09/28 03:52:55;;;;;;;27.50;17.73;;;14.60;99.90;;;;;;10169413;29;20209;-88
2023/09/28 03:58:02;;;;;;;22.52;16.48;;;14.60;99.90;;;;;;10178661;29;20233;-88
2023/09/28 04:03:05;;;;;;;24.27;15.45;;;14.50;99.90;;;;;;10185177;29;20229;-88
2023/09/28 04:08:07;;;;;;;19.02;15.68;;;14.40;99.90;;;;;;10193320;29;20233;-88
2023/09/28 04:13:10;;;;;;;22.17;16.02;;;14.40;99.90;;;;;;10181913;29;20194;-87
2023/09/28 04:18:14;;;;;;;16.45;12.43;;;14.40;99.90;;;;;;10184817;29;20245;-88
2023/09/28 04:23:16;;;;;;;21.80;16.38;;;14.20;99.90;;;;;;10184420;29;20192;-89
2023/09/28 04:28:19;;;;;;;20.80;16.33;;;14.00;99.90;;;;;;10182438;29;20216;-88
2023/09/28 04:33:21;;;;;;;26.25;16.55;;;14.10;99.90;;;;;;10167017;29;20221;-88
2023/09/28 04:38:24;;;;;;;22.27;16.08;;;13.90;99.90;;;;;;10181535;29;20196;-88
2023/09/28 04:43:27;;;;;;;21.40;13.63;;;13.80;99.90;;;;;;10182577;29;20188;-88
2023/09/28 04:48:29;;;;;;;22.75;15.48;;;13.70;99.90;;;;;;10182632;29;20209;-88
2023/09/28 04:53:32;;;;;;;20.33;15.65;;;13.60;99.90;;;;;;10182130;29;20209;-88
2023/09/28 04:58:37;;;;;;;22.48;13.60;;;;;;;;;;10182083;29;20229;-88
2023/09/28 05:03:41;;;;;;;25.95;16.75;;;;;;;;;;10166403;29;20181;-88
2023/09/28 05:08:47;;;;;;;20.02;14.07;;;13.30;99.90;;;;;;10168250;29;20201;-87
2023/09/28 05:13:51;;;;;;;13.10;10.55;;;13.30;99.90;;;;;;10127008;29;20193;-87
2023/09/28 05:18:55;;;;;;;23.10;15.50;;;13.80;99.90;;;;;;10171503;29;20188;-89
2023/09/28 05:23:58;;;;;;;20.05;16.77;;;14.20;99.90;;;;;;10164829;29;20248;-87
2023/09/28 05:29:02;;;;;;;22.92;15.55;;;14.00;99.90;;;;;;10181648;29;20204;-87
2023/09/28 05:34:05;;;;;;;25.75;16.05;;;13.90;99.90;;;;;;10180994;29;20224;-87
2023/09/28 05:39:08;;;;;;;15.65;12.30;;;13.80;99.90;;;;;;10186158;29;20219;-86
2023/09/28 05:44:11;;;;;;;31.25;17.70;;;14.00;99.90;;;;;;10182837;29;20208;-87
2023/09/28 05:49:16;;;;;;;23.25;16.33;;;14.70;99.90;;;;;;10188214;29;20192;-87
2023/09/28 05:54:19;;;;;;;25.45;17.70;;;14.50;99.90;;;;;;10172730;29;20204;-87
2023/09/28 05:59:21;;;;;;;28.42;16.15;;;14.70;99.90;;;;;;10187620;29;20184;-87
2023/09/28 06:04:25;;;;;;;30.38;18.95;;;14.80;99.90;;;;;;10171254;29;20217;-87
2023/09/28 06:09:27;;;;;;;13.43;11.43;;;14.90;99.90;;;;;;10171399;29;20188;-87
2023/09/28 06:14:30;;;;;;;21.35;17.10;;;15.10;99.90;;;;;;10175343;29;20236;-87
2023/09/28 06:19:33;;;;;;;20.33;15.40;;;15.30;99.90;;;;;;10187023;29;20201;-87
2023/09/28 06:24:49;;;;;;;14.07;12.05;;;15.40;99.90;;;;;;10182804;29;20260;-86
2023/09/28 06:29:53;;;;;;;26.27;18.15;;;15.50;99.90;;;;;;10190054;29;20192;-87
2023/09/28 06:34:56;;;;;;;18.70;13.07;;;15.70;99.90;;;;;;10171255;29;20212;-87
2023/09/28 06:40:03;;;;;;;14.45;11.75;;;16.20;99.90;;;;;;10190915;29;20221;-87
2023/09/28 06:45:07;;;;;;;19.30;13.65;;;16.30;99.90;;;;;;10189622;29;20193;-88
2023/09/28 06:50:10;;;;;;;14.27;11.00;;;16.40;99.90;;;;;;10174386;29;20197;-88
2023/09/28 06:55:13;;;;;;;16.92;13.15;;;16.60;99.90;;;;;;10210815;29;20235;-87
2023/09/28 07:00:16;;;;;;;22.95;14.23;;;16.70;99.90;;;;;;10181439;29;20213;-88
2023/09/28 07:05:19;;;;;;;16.05;13.70;;;17.00;99.90;;;;;;10182646;29;20224;-87
2023/09/28 07:10:22;;;;;;;20.65;15.68;;;17.30;99.90;;;;;;10174744;29;20209;-88
2023/09/28 07:15:25;;;;;;;15.55;12.70;;;17.60;99.90;;;;;;10188519;29;20220;-86
2023/09/28 07:20:27;;;;;;;14.10;11.48;;;17.70;99.90;;;;;;10187826;29;20176;-87
2023/09/28 07:25:30;;;;;;;19.98;14.60;;;17.90;99.90;;;;;;10184381;29;20252;-87
2023/09/28 07:30:35;;;;;;;29.05;18.05;;;18.10;99.90;;;;;;10170641;29;20184;-87
2023/09/28 07:35:38;;;;;;;20.02;12.13;;;18.30;99.90;;;;;;10170208;29;20216;-86
2023/09/28 07:40:41;;;;;;;17.67;14.57;;;18.50;99.90;;;;;;10170853;29;20188;-87
2023/09/28 07:45:49;;;;;;;18.17;11.77;;;18.80;99.90;;;;;;10161029;29;20280;-87
2023/09/28 07:50:52;;;;;;;10.90;9.57;;;19.10;99.90;;;;;;10177670;29;20193;-87
2023/09/28 07:55:55;;;;;;;10.65;9.55;;;19.30;99.40;;;;;;10132216;29;20217;-87
2023/09/28 08:00:57;;;;;;;19.20;15.48;;;19.50;98.60;;;;;;10148010;29;20193;-87
2023/09/28 08:06:00;;;;;;;18.52;15.15;;;19.80;99.20;;;;;;10185329;29;20192;-87
2023/09/28 08:11:02;;;;;;;19.42;13.23;;;19.90;98.40;;;;;;10183429;29;20205;-87
2023/09/28 08:16:05;;;;;;;13.63;11.48;;;20.10;96.60;;;;;;10158867;29;20225;-86
2023/09/28 08:21:09;;;;;;;9.32;8.40;;;20.30;96.30;;;;;;10147326;29;20202;-87
2023/09/28 08:26:12;;;;;;;13.68;10.98;;;20.50;95.40;;;;;;10146978;29;20217;-87
2023/09/28 08:31:15;;;;;;;18.10;12.20;;;20.70;95.40;;;;;;10131454;29;20189;-86
2023/09/28 08:36:18;;;;;;;22.33;13.25;;;20.80;94.40;;;;;;10150799;29;20260;-86
2023/09/28 08:41:31;;;;;;;13.82;10.45;;;21.00;94.70;;;;;;10138288;29;20264;-83
2023/09/28 08:46:38;;;;;;;15.18;11.48;;;21.10;94.30;;;;;;10116684;29;20268;-84
2023/09/28 08:51:47;;;;;;;24.08;12.27;;;21.30;94.20;;;;;;10133986;29;20229;-84
2023/09/28 08:56:52;;;;;;;17.83;10.27;;;21.50;94.10;;;;;;10117206;29;20264;-84
2023/09/28 09:01:56;;;;;;;15.23;10.07;;;21.60;93.60;;;;;;10133651;29;20209;-84
2023/09/28 09:06:59;;;;;;;16.67;11.82;;;21.70;92.70;;;;;;10117011;29;20200;-82
2023/09/28 09:12:09;;;;;;;15.48;12.10;;;21.80;92.80;;;;;;10135174;29;20691;-84
2023/09/28 09:17:11;;;;;;;17.88;11.75;;;22.00;92.50;;;;;;10140928;29;20220;-84
2023/09/28 09:22:28;;;;;;;16.05;10.73;;;22.10;92.00;;;;;;10124371;29;20734;-84
2023/09/28 09:27:45;;;;;;;12.25;10.02;;;22.20;91.70;;;;;;10141031;29;20791;-84
2023/09/28 09:32:47;;;;;;;17.67;10.68;;;22.30;91.00;;;;;;10110220;29;20220;-83
2023/09/28 09:37:55;;;;;;;18.60;9.90;;;22.50;89.90;;;;;;10139774;29;20232;-88
2023/09/28 09:43:08;;;;;;;17.05;8.27;;;22.60;90.00;;;;;;10120609;29;20201;-89
2023/09/28 09:48:11;;;;;;;13.23;9.57;;;22.70;88.90;;;;;;10152765;29;20220;-90
2023/09/28 09:53:16;;;;;;;15.23;9.70;;;22.80;84.80;;;;;;10142375;29;20223;-89
2023/09/28 09:58:27;;;;;;;17.08;9.32;;;23.00;86.90;;;;;;10151552;29;20228;-89
2023/09/28 10:03:32;;;;;;;12.45;8.90;;;23.10;84.30;;;;;;10158828;29;20239;-89
2023/09/28 10:08:35;;;;;;;10.80;8.57;;;23.20;83.70;;;;;;10156227;29;20345;-89
2023/09/28 10:13:37;;;;;;;15.93;10.32;;;23.30;79.10;;;;;;10134346;29;20324;-89
2023/09/28 10:18:46;;;;;;;10.63;8.98;;;23.50;80.00;;;;;;10116817;29;20233;-89
2023/09/28 10:23:55;;;;;;;12.07;8.57;;;23.60;78.50;;;;;;10101574;29;20261;-90
2023/09/28 10:29:09;;;;;;;11.88;7.97;;;23.70;75.30;;;;;;10116686;29;20267;-89
2023/09/28 10:34:21;;;;;;;14.50;7.63;;;23.80;68.00;;;;;;10133550;29;20244;-89
2023/09/28 10:39:23;;;;;;;8.85;7.90;;;23.90;66.30;;;;;;10103359;29;20288;-89
2023/09/28 10:44:26;;;;;;;9.65;8.10;;;24.00;62.70;;;;;;10112046;29;20694;-89
2023/09/28 10:49:29;;;;;;;15.95;6.53;;;24.10;68.90;;;;;;10144151;29;20243;-90
2023/09/28 10:54:31;;;;;;;10.13;8.70;;;24.10;56.80;;;;;;10147964;29;20255;-90
2023/09/28 10:59:37;;;;;;;7.63;6.70;;;24.20;63.70;;;;;;10132294;29;20260;-90
2023/09/28 11:04:39;;;;;;;10.05;6.88;;;24.20;56.30;;;;;;10115856;29;20338;-89
2023/09/28 11:09:53;;;;;;;7.88;7.07;;;24.30;59.00;;;;;;10129250;29;20236;-88
2023/09/28 11:14:58;;;;;;;12.18;7.65;;;24.30;55.20;;;;;;10131081;29;20295;-90
2023/09/28 11:20:01;;;;;;;12.70;6.55;;;24.30;51.60;;;;;;10115051;29;20288;-92
2023/09/28 11:25:05;;;;;;;7.07;6.35;;;24.40;51.10;;;;;;10131050;29;20824;-90
2023/09/28 11:30:17;;;;;;;10.73;7.30;;;24.40;54.70;;;;;;10129843;29;20304;-91
2023/09/28 11:35:24;;;;;;;11.55;7.00;;;24.50;58.70;;;;;;10112569;29;20243;-91
2023/09/28 11:40:28;;;;;;;9.73;7.07;;;24.40;50.60;;;;;;10128493;29;20248;-90
2023/09/28 11:45:35;;;;;;;9.05;5.57;;;24.40;52.90;;;;;;10088170;29;20248;-85
2023/09/28 11:50:39;;;;;;;7.40;5.68;;;24.50;47.70;;;;;;10074643;29;20244;-84
2023/09/28 11:55:45;;;;;;;12.82;6.28;;;24.50;44.60;;;;;;10090623;29;20268;-84
2023/09/28 12:00:49;;;;;;;12.43;6.63;;;24.50;45.60;;;;;;10087417;29;20232;-90
2023/09/28 12:05:52;;;;;;;9.55;6.03;;;24.50;42.00;;;;;;10123468;29;20287;-90
2023/09/28 12:10:57;;;;;;;10.25;6.40;;;24.50;46.40;;;;;;10128084;29;20244;-89
2023/09/28 12:16:00;;;;;;;12.23;6.20;;;24.50;42.30;;;;;;10112329;29;20664;-90
2023/09/28 12:21:03;;;;;;;7.03;6.05;;;24.60;43.90;;;;;;10128048;29;20290;-90
2023/09/28 12:26:05;;;;;;;11.27;6.72;;;24.60;42.80;;;;;;10127010;29;20351;-90
2023/09/28 12:31:08;;;;;;;6.82;5.78;;;24.60;48.70;;;;;;10122084;29;20243;-90
2023/09/28 12:36:11;;;;;;;14.85;6.10;;;24.70;51.10;;;;;;10089617;29;20272;-90
2023/09/28 12:41:14;;;;;;;9.15;5.60;;;24.60;42.80;;;;;;10129811;29;20295;-90
2023/09/28 12:46:16;;;;;;;9.63;6.38;;;24.70;44.40;;;;;;10112159;29;20252;-89
2023/09/28 12:51:19;;;;;;;14.10;5.95;;;24.70;42.70;;;;;;10089088;29;20245;-91
2023/09/28 12:56:23;;;;;;;9.27;6.97;;;24.70;34.60;;;;;;10108204;29;20351;-91
2023/09/28 13:01:27;;;;;;;22.23;7.28;;;24.70;42.70;;;;;;10102615;29;20307;-92
2023/09/28 13:06:30;;;;;;;11.05;6.90;;;24.70;43.30;;;;;;10125327;29;20327;-93
2023/09/28 13:11:33;;;;;;;6.88;6.15;;;24.80;44.10;;;;;;10126183;29;20244;-91
2023/09/28 13:16:36;;;;;;;8.98;6.13;;;24.80;41.40;;;;;;10110399;29;20325;-91
2023/09/28 13:21:39;;;;;;;22.17;7.15;;;24.90;50.50;;;;;;10111394;29;20248;-92
2023/09/28 13:26:41;;;;;;;6.88;6.22;;;24.90;42.60;;;;;;10126280;29;20263;-92
2023/09/28 13:31:47;;;;;;;11.82;6.65;;;24.90;46.70;;;;;;10100104;29;20248;-91
2023/09/28 13:36:49;;;;;;;9.52;5.70;;;24.90;37.40;;;;;;10117196;29;20252;-90
2023/09/28 13:42:01;;;;;;;7.78;5.45;;;24.90;42.20;;;;;;10102078;29;20240;-92
2023/09/28 13:47:05;;;;;;;8.77;5.72;;;24.90;36.30;;;;;;10106317;29;20239;-91
2023/09/28 13:52:08;;;;;;;6.35;5.70;;;25.00;36.40;;;;;;10127404;29;20233;-91
2023/09/28 13:57:11;;;;;;;10.93;6.53;;;25.00;43.90;;;;;;10128952;29;20304;-90
2023/09/28 14:02:14;;;;;;;6.95;5.57;;;25.00;44.40;;;;;;10118148;29;20308;-91
2023/09/28 14:07:17;;;;;;;5.82;5.18;;;24.90;40.10;;;;;;10134342;29;20235;-92
2023/09/28 14:12:20;;;;;;;6.10;5.50;;;24.90;35.60;;;;;;10133781;29;20687;-91
2023/09/28 14:17:22;;;;;;;10.35;6.22;;;24.90;30.60;;;;;;10117112;29;20263;-91
2023/09/28 14:22:40;;;;;;;8.60;5.57;;;24.90;44.30;;;;;;10075105;29;20771;-93
2023/09/28 14:27:47;;;;;;;8.00;5.75;;;24.90;37.40;;;;;;10118719;29;20267;-91
2023/09/28 14:32:50;;;;;;;6.90;5.20;;;24.90;35.90;;;;;;10111055;29;20236;-90
2023/09/28 14:37:53;;;;;;;9.57;6.43;;;24.90;43.30;;;;;;10112074;29;20721;-91
2023/09/28 14:42:56;;;;;;;5.50;4.80;;;24.90;40.70;;;;;;10109733;29;20676;-90
2023/09/28 14:47:59;;;;;;;8.98;6.63;;;24.80;41.20;;;;;;10113718;29;20240;-92
2023/09/28 14:53:07;;;;;;;6.75;5.95;;;24.80;42.10;;;;;;10132165;29;20236;-90
2023/09/28 14:58:14;;;;;;;10.68;5.72;;;24.80;45.60;;;;;;10131121;29;20330;-91
2023/09/28 15:03:17;;;;;;;8.10;5.82;;;24.80;40.70;;;;;;10114657;29;20243;-91
2023/09/28 15:08:20;;;;;;;8.95;6.07;;;24.70;43.50;;;;;;10132241;29;20232;-92
2023/09/28 15:13:23;;;;;;;7.22;5.70;;;24.70;42.10;;;;;;10130651;29;20231;-91
2023/09/28 15:18:25;;;;;;;12.80;7.78;;;24.60;40.80;;;;;;10115140;29;20271;-92
2023/09/28 15:23:28;;;;;;;9.90;6.90;;;24.60;43.20;;;;;;10114543;29;20317;-91
2023/09/28 15:28:31;;;;;;;12.93;7.32;;;24.50;37.90;;;;;;10129839;29;20734;-91
2023/09/28 15:33:35;;;;;;;9.02;7.35;;;24.40;41.90;;;;;;10129503;29;20671;-91
2023/09/28 15:38:44;;;;;;;13.50;7.13;;;24.40;49.60;;;;;;10113962;29;20313;-89
2023/09/28 15:43:48;;;;;;;13.27;6.47;;;24.20;44.60;;;;;;10130656;29;20236;-90
2023/09/28 15:48:51;;;;;;;10.55;7.00;;;23.90;47.40;;;;;;10129994;29;20240;-91
2023/09/28 15:53:53;;;;;;;11.93;6.20;;;23.70;52.40;;;;;;10113273;29;20672;-91
2023/09/28 15:58:56;;;;;;;7.75;5.28;;;23.40;45.20;;;;;;10110993;29;20262;-90
2023/09/28 16:04:00;;;;;;;14.25;7.10;;;23.20;50.50;;;;;;10170295;29;20193;-91
2023/09/28 16:09:04;;;;;;;9.05;6.82;;;23.00;58.40;;;;;;10112012;29;20268;-90
2023/09/28 16:14:09;;;;;;;14.32;7.03;;;22.60;53.20;;;;;;10128042;29;20291;-90
2023/09/28 16:19:11;;;;;;;16.45;6.85;;;22.10;55.80;;;;;;10115018;29;20284;-92
2023/09/28 16:24:14;;;;;;;12.65;7.28;;;21.70;55.80;;;;;;10108535;29;20723;-91
2023/09/28 16:29:16;;;;;;;24.48;6.60;;;21.30;60.90;;;;;;10105124;29;20227;-90
2023/09/28 16:34:20;;;;;;;10.25;6.75;;;20.90;66.10;;;;;;10126845;29;20697;-91
2023/09/28 16:39:23;;;;;;;24.92;8.55;;;20.60;70.90;;;;;;10110562;29;20969;-88
2023/09/28 16:44:25;;;;;;;32.85;7.93;;;20.30;78.20;;;;;;10126343;29;20244;-89
2023/09/28 16:49:28;;;;;;;22.90;8.25;;;19.80;85.60;;;;;;10126591;29;20613;-88
2023/09/28 16:54:31;;;;;;;46.42;13.60;;;19.50;89.20;;;;;;10111104;29;20697;-89
2023/09/28 16:59:34;;;;;;;38.67;10.40;;;19.10;91.30;;;;;;10109871;29;20263;-91
2023/09/28 17:04:37;;;;;;;48.97;14.15;;;18.80;92.80;;;;;;10106939;29;20235;-88
2023/09/28 17:09:39;;;;;;;29.77;9.18;;;18.50;94.50;;;;;;10116119;29;20264;-82
2023/09/28 17:14:42;;;;;;;21.77;7.90;;;18.30;95.20;;;;;;9751354;29;10000158;-84
2023/09/28 17:19:45;;;;;;;26.90;8.07;;;18.50;95.80;;;;;;10112058;29;20280;-84
2023/09/28 17:24:47;;;;;;;30.92;8.43;;;18.60;95.60;;;;;;10124945;29;20645;-84
2023/09/28 17:29:50;;;;;;;41.90;9.38;;;18.60;94.70;;;;;;10107517;29;20724;-83
2023/09/28 17:34:55;;;;;;;76.53;13.43;;;18.60;96.10;;;;;;10129261;29;20794;-84
2023/09/28 17:39:58;;;;;;;50.70;11.75;;;18.50;94.90;;;;;;10114738;29;20255;-84
2023/09/28 17:45:02;;;;;;;62.88;13.02;;;18.40;95.80;;;;;;10114731;29;20263;-84
2023/09/28 17:50:05;;;;;;;81.97;12.40;;;18.20;95.40;;;;;;10115191;29;20807;-84
2023/09/28 17:55:08;;;;;;;23.33;9.27;;;18.20;95.60;;;;;;10131312;29;20236;-84
2023/09/28 18:00:11;;;;;;;58.40;11.30;;;18.10;96.40;;;;;;10113439;29;20770;-84
2023/09/28 18:05:14;;;;;;;46.78;10.82;;;18.00;96.00;;;;;;10130133;29;20236;-84
2023/09/28 18:10:17;;;;;;;39.15;10.23;;;17.80;96.20;;;;;;10146104;29;20314;-85
2023/09/28 18:15:20;;;;;;;47.90;10.73;;;17.80;96.90;;;;;;10131153;29;20239;-84
2023/09/28 18:20:23;;;;;;;54.25;11.20;;;17.50;96.60;;;;;;10147278;29;20325;-84
2023/09/28 18:25:25;;;;;;;41.35;10.95;;;17.40;97.20;;;;;;10130317;29;20328;-84
2023/09/28 18:30:29;;;;;;;59.15;11.63;;;17.30;97.30;;;;;;10125873;29;20296;-87
2023/09/28 18:35:32;;;;;;;43.30;9.93;;;17.20;97.20;;;;;;10124761;29;20239;-88
2023/09/28 18:40:42;;;;;;;31.88;9.18;;;17.40;98.70;;;;;;10086525;29;20268;-88
2023/09/28 18:45:44;;;;;;;44.42;9.77;;;17.50;98.70;;;;;;10093815;29;20321;-88
2023/09/28 18:50:47;;;;;;;27.20;8.50;;;17.60;97.80;;;;;;10106716;29;20236;-90
2023/09/28 18:55:49;;;;;;;24.58;8.48;;;17.40;97.90;;;;;;10111221;29;20240;-88
2023/09/28 19:00:52;;;;;;;24.10;8.65;;;17.40;98.40;;;;;;10102305;29;20260;-88
2023/09/28 19:05:55;;;;;;;20.38;7.63;;;17.30;98.20;;;;;;9768071;29;10000442;-87
2023/09/28 19:10:59;;;;;;;25.80;9.23;;;17.20;96.70;;;;;;10120183;29;20487;-88
2023/09/28 19:16:07;;;;;;;20.10;8.68;;;17.00;97.50;;;;;;10117903;29;20240;-88
2023/09/28 19:21:10;;;;;;;17.00;7.22;;;16.80;98.10;;;;;;10126396;29;20380;-88
2023/09/28 19:26:13;;;;;;;25.60;8.80;;;17.10;99.90;;;;;;10126760;29;20263;-88
2023/09/28 19:31:16;;;;;;;29.00;8.63;;;17.00;99.90;;;;;;10111264;29;20770;-88
2023/09/28 19:36:19;;;;;;;21.33;7.82;;;16.90;99.50;;;;;;10100707;29;20292;-88
2023/09/28 19:41:26;;;;;;;24.00;9.43;;;17.00;99.90;;;;;;10127384;29;20304;-88
2023/09/28 19:46:29;;;;;;;21.88;7.60;;;17.30;99.60;;;;;;10128067;29;20240;-88
2023/09/28 19:51:32;;;;;;;10.85;6.72;;;17.20;99.90;;;;;;10126963;29;20316;-88
2023/09/28 19:56:34;;;;;;;19.67;7.78;;;17.10;99.90;;;;;;10111122;29;20240;-88
2023/09/28 20:01:37;;;;;;;11.65;6.55;;;16.80;99.00;;;;;;10110266;29;20295;-89
2023/09/28 20:06:40;;;;;;;13.43;7.85;;;16.70;99.90;;;;;;10110362;29;20228;-90
2023/09/28 20:11:43;;;;;;;13.10;7.10;;;16.50;99.90;;;;;;10111990;29;20299;-89
2023/09/28 20:16:45;;;;;;;13.80;7.57;;;16.30;99.90;;;;;;10109345;29;20264;-89
2023/09/28 20:21:48;;;;;;;12.23;8.38;;;16.10;99.90;;;;;;10141125;29;20259;-89
2023/09/28 20:26:50;;;;;;;7.00;6.05;;;16.10;99.90;;;;;;10146406;29;20255;-89
2023/09/28 20:31:54;;;;;;;11.70;6.57;;;16.10;99.90;;;;;;10126227;29;20236;-89
2023/09/28 20:36:56;;;;;;;18.40;8.90;;;16.30;99.90;;;;;;10128394;29;20659;-89
2023/09/28 20:42:00;;;;;;;13.93;8.65;;;;;;;;;;10110345;29;20247;-89
2023/09/28 20:47:02;;;;;;;12.52;7.43;;;15.70;99.90;;;;;;10140446;29;20350;-87
2023/09/28 20:52:07;;;;;;;13.20;9.52;;;16.10;99.90;;;;;;10160816;29;20319;-90
2023/09/28 20:57:10;;;;;;;15.38;8.95;;;16.30;99.90;;;;;;10142875;29;20310;-90
2023/09/28 21:02:12;;;;;;;15.88;7.35;;;16.10;99.90;;;;;;10132274;29;20259;-89
2023/09/28 21:07:16;;;;;;;13.80;7.45;;;15.90;99.90;;;;;;10128864;29;20650;-90
2023/09/28 21:12:19;;;;;;;12.65;7.88;;;16.00;99.90;;;;;;10127050;29;20337;-91
2023/09/28 21:17:21;;;;;;;11.90;6.07;;;15.90;99.90;;;;;;10124418;29;20252;-90
2023/09/28 21:22:24;;;;;;;12.52;7.65;;;15.80;99.90;;;;;;10118251;29;20263;-90
2023/09/28 21:27:26;;;;;;;12.50;8.23;;;15.70;99.90;;;;;;10107537;29;20264;-90
2023/09/28 21:32:29;;;;;;;13.73;9.25;;;15.80;99.90;;;;;;10082416;29;20710;-90
2023/09/28 21:37:32;;;;;;;8.30;6.85;;;;;;;;;;10094520;29;20245;-90
2023/09/28 21:42:35;;;;;;;20.63;9.85;;;15.40;99.90;;;;;;10094369;29;21013;-89
2023/09/28 21:47:37;;;;;;;12.45;8.50;;;15.40;99.90;;;;;;10094258;29;20643;-90
2023/09/28 21:53:26;;;;;;;10.60;8.88;;;15.60;99.90;;;;;;10078953;29;20233;-91
2023/09/28 21:58:29;;;;;;;11.80;7.68;;;15.80;99.90;;;;;;10075432;29;20731;-89
2023/09/28 22:03:33;;;;;;;14.93;9.55;;;15.50;99.90;;;;;;10078592;29;20701;-89
2023/09/28 22:08:36;;;;;;;18.35;10.57;;;15.80;99.90;;;;;;10077106;29;20296;-90
2023/09/28 22:13:39;;;;;;;13.68;9.55;;;15.60;99.90;;;;;;10112442;29;20300;-90
2023/09/28 22:18:42;;;;;;;13.00;9.95;;;15.50;99.90;;;;;;10077663;29;20679;-91
2023/09/28 22:23:44;;;;;;;12.75;10.57;;;15.20;99.90;;;;;;10095170;29;20304;-91
2023/09/28 22:28:47;;;;;;;17.25;10.40;;;15.20;99.90;;;;;;10119510;29;20236;-90
2023/09/28 22:33:50;;;;;;;14.10;10.63;;;14.80;99.90;;;;;;10100648;29;20257;-91
2023/09/28 22:38:52;;;;;;;17.17;10.27;;;15.00;99.90;;;;;;10115073;29;20268;-89
2023/09/28 22:43:55;;;;;;;12.55;11.02;;;14.70;99.90;;;;;;10118471;29;20625;-90
2023/09/28 22:48:58;;;;;;;15.57;11.77;;;14.50;99.90;;;;;;10121194;29;20299;-90
2023/09/28 22:54:01;;;;;;;21.48;11.40;;;14.80;99.90;;;;;;10111000;29;20253;-91
2023/09/28 22:59:04;;;;;;;18.42;10.98;;;14.60;99.90;;;;;;10124259;29;20264;-90
2023/09/28 23:04:06;;;;;;;17.30;11.52;;;14.50;99.90;;;;;;10122369;29;20770;-90
2023/09/28 23:09:09;;;;;;;12.77;9.25;;;14.80;99.90;;;;;;10109612;29;20240;-90
2023/09/28 23:14:12;;;;;;;7.47;5.53;;;14.60;99.90;;;;;;10118360;29;20228;-91
2023/09/28 23:19:15;;;;;;;16.15;10.80;;;14.80;99.90;;;;;;10113325;29;20285;-89
2023/09/28 23:24:18;;;;;;;16.67;10.68;;;14.80;99.90;;;;;;10096908;29;20323;-91
2023/09/28 23:29:20;;;;;;;8.60;7.78;;;14.50;99.90;;;;;;10105384;29;20752;-90
2023/09/28 23:34:23;;;;;;;12.93;9.45;;;14.50;99.90;;;;;;10109701;29;20314;-90
2023/09/28 23:39:26;;;;;;;16.48;9.18;;;14.30;99.90;;;;;;10127872;29;20256;-90
2023/09/28 23:44:31;;;;;;;9.30;7.43;;;;;;;;;;10119340;29;20252;-90
2023/09/28 23:49:36;;;;;;;9.88;8.18;;;14.20;99.90;;;;;;10122596;29;20290;-90
2023/09/28 23:54:39;;;;;;;11.63;9.02;;;14.60;99.90;;;;;;10114773;29;20281;-91
2023/09/28 23:59:41;;;;;;;10.40;8.10;;;14.40;99.90;;;;;;10120910;29;20312;-90
